createdAt,value
2023-02-14T00:02:42.622Z,33.04
2023-02-14T00:07:39.905Z,32.55
2023-02-14T00:12:39.231Z,31.61
2023-02-14T00:17:39.334Z,30.77
2023-02-14T00:22:37.648Z,30.11
2023-02-14T00:27:37.941Z,29.41
2023-02-14T00:32:38.232Z,29.00
2023-02-14T00:37:35.496Z,28.40
2023-02-14T00:42:36.786Z,27.79
2023-02-14T00:47:35.107Z,26.92
2023-02-14T00:52:34.401Z,26.54
2023-02-14T00:57:32.691Z,26.01
2023-02-14T01:02:32.091Z,25.58
2023-02-14T01:07:34.343Z,25.20
2023-02-14T01:12:30.632Z,24.83
2023-02-14T01:17:29.705Z,24.50
2023-02-14T01:22:29.026Z,24.15
2023-02-14T01:27:28.154Z,23.87
2023-02-14T01:32:26.516Z,23.57
2023-02-14T01:37:26.667Z,23.23
2023-02-14T01:42:25.793Z,22.97
2023-02-14T01:47:25.112Z,22.73
2023-02-14T01:52:24.449Z,22.49
2023-02-14T01:57:23.585Z,22.25
2023-02-14T02:02:24.117Z,22.05
2023-02-14T02:07:22.058Z,21.83
2023-02-14T02:12:21.383Z,21.61
2023-02-14T02:17:22.694Z,21.43
2023-02-14T02:22:20.012Z,21.22
2023-02-14T02:27:19.333Z,21.03
2023-02-14T02:32:19.658Z,20.87
2023-02-14T02:37:17.976Z,20.69
2023-02-14T02:42:19.267Z,20.54
2023-02-14T02:47:16.534Z,20.41
2023-02-14T02:52:15.830Z,20.28
2023-02-14T02:57:15.117Z,20.16
2023-02-14T03:02:14.455Z,20.02
2023-02-14T03:07:13.869Z,19.91
2023-02-14T03:12:15.045Z,19.78
2023-02-14T03:17:12.133Z,19.69
2023-02-14T03:22:12.449Z,19.58
2023-02-14T03:27:10.759Z,19.48
2023-02-14T03:32:10.209Z,19.41
2023-02-14T03:37:10.226Z,19.29
2023-02-14T03:42:09.492Z,19.22
2023-02-14T03:47:07.791Z,19.16
2023-02-14T03:52:07.110Z,19.11
2023-02-14T03:57:06.405Z,19.14
2023-02-14T04:02:05.812Z,19.18
2023-02-14T04:07:05.928Z,19.22
2023-02-14T04:12:04.202Z,19.22
2023-02-14T04:17:03.501Z,19.21
2023-02-14T04:22:02.798Z,19.19
2023-02-14T04:27:02.105Z,19.16
2023-02-14T04:32:02.468Z,19.07
2023-02-14T04:37:00.806Z,19.02
2023-02-14T04:41:59.988Z,18.94
2023-02-14T04:46:59.110Z,18.88
2023-02-14T04:51:59.429Z,18.80
2023-02-14T04:56:57.746Z,18.72
2023-02-14T05:01:57.099Z,18.65
2023-02-14T05:06:56.220Z,18.65
2023-02-14T05:11:56.526Z,18.76
2023-02-14T05:16:53.823Z,19.22
2023-02-14T05:21:54.121Z,19.37
2023-02-14T05:26:53.417Z,19.43
2023-02-14T05:31:54.719Z,19.41
2023-02-14T05:36:52.999Z,19.36
2023-02-14T05:41:51.283Z,19.25
2023-02-14T05:46:51.619Z,19.16
2023-02-14T05:51:52.745Z,19.07
2023-02-14T05:56:49.046Z,18.92
2023-02-14T06:01:48.377Z,18.85
2023-02-14T06:06:47.705Z,18.73
2023-02-14T06:11:47.098Z,18.63
2023-02-14T06:16:47.460Z,18.63
2023-02-14T06:21:46.430Z,19.25
2023-02-14T06:26:45.717Z,19.48
2023-02-14T06:31:45.112Z,19.88
2023-02-14T06:36:44.368Z,20.02
2023-02-14T06:41:44.638Z,19.96
2023-02-14T06:46:43.928Z,19.92
2023-02-14T06:51:41.263Z,19.86
2023-02-14T06:56:41.590Z,19.76
2023-02-14T07:01:39.770Z,19.63
2023-02-14T07:06:39.913Z,19.54
2023-02-14T07:11:38.187Z,19.40
2023-02-14T07:16:37.492Z,19.22
2023-02-14T07:21:37.770Z,19.06
2023-02-14T07:26:36.074Z,18.90
2023-02-14T07:31:35.542Z,18.75
2023-02-14T07:36:35.584Z,18.63
2023-02-14T07:41:33.906Z,19.02
2023-02-14T07:46:33.339Z,20.11
2023-02-14T07:51:33.500Z,21.01
2023-02-14T07:56:31.633Z,21.52
2023-02-14T08:01:30.836Z,21.38
2023-02-14T08:06:32.001Z,21.12
2023-02-14T08:11:30.324Z,24.21
2023-02-14T08:16:30.668Z,24.98
2023-02-14T08:21:27.951Z,26.23
2023-02-14T08:26:27.278Z,28.55
2023-02-14T08:31:35.177Z,29.21
2023-02-14T08:36:26.747Z,28.89
2023-02-14T08:41:25.075Z,29.30
2023-02-14T08:46:25.432Z,29.48
2023-02-14T08:51:23.525Z,30.39
2023-02-14T08:56:23.844Z,30.72
2023-02-14T09:01:22.234Z,30.53
2023-02-14T09:06:21.392Z,30.49
2023-02-14T09:11:21.517Z,30.64
2023-02-14T09:16:20.861Z,30.95
2023-02-14T09:21:19.194Z,31.41
2023-02-14T09:26:17.489Z,31.62
2023-02-14T09:31:18.939Z,32.04
2023-02-14T09:36:19.104Z,31.75
2023-02-14T09:41:16.395Z,30.92
2023-02-14T09:46:15.816Z,31.36
2023-02-14T09:51:14.949Z,30.22
2023-02-14T09:56:15.250Z,29.87
2023-02-14T10:01:12.579Z,28.51
2023-02-14T10:06:13.765Z,28.55
2023-02-14T10:11:13.062Z,28.78
2023-02-14T10:16:11.444Z,26.20
2023-02-14T10:21:10.601Z,27.31
2023-02-14T10:26:09.917Z,27.03
2023-02-14T10:31:09.275Z,27.47
2023-02-14T10:36:08.419Z,27.60
2023-02-14T10:41:06.547Z,27.21
2023-02-14T10:46:06.932Z,29.28
2023-02-14T10:51:07.091Z,29.33
2023-02-14T10:56:06.575Z,29.00
2023-02-14T11:01:05.780Z,28.52
2023-02-14T11:06:04.950Z,29.51
2023-02-14T11:11:04.070Z,30.46
2023-02-14T11:16:03.017Z,29.71
2023-02-14T11:21:01.769Z,28.44
2023-02-14T11:26:01.213Z,29.36
2023-02-14T11:31:00.815Z,27.79
2023-02-14T11:35:59.488Z,29.26
2023-02-14T11:40:59.026Z,28.14
2023-02-14T11:45:57.914Z,27.22
2023-02-14T11:51:00.700Z,27.51
2023-02-14T11:55:56.558Z,26.97
2023-02-14T12:00:55.860Z,27.00
2023-02-14T12:05:56.158Z,27.09
2023-02-14T12:10:54.463Z,26.44
2023-02-14T12:15:53.819Z,28.11
2023-02-14T12:20:52.924Z,27.06
2023-02-14T12:25:53.262Z,27.00
2023-02-14T12:30:51.616Z,25.60
2023-02-14T12:35:51.785Z,25.14
2023-02-14T12:40:50.091Z,25.40
2023-02-14T12:45:51.228Z,26.05
2023-02-14T12:50:48.566Z,28.46
2023-02-14T12:55:48.737Z,30.53
2023-02-14T13:00:46.904Z,32.07
2023-02-14T13:05:47.056Z,32.67
2023-02-14T13:10:45.196Z,31.70
2023-02-14T13:15:44.497Z,29.79
2023-02-14T13:20:43.743Z,28.40
2023-02-14T13:25:43.078Z,28.44
2023-02-14T13:30:46.565Z,30.82
2023-02-14T13:35:41.681Z,30.00
2023-02-14T13:40:41.842Z,29.15
2023-02-14T13:45:42.014Z,28.68
2023-02-14T13:50:39.164Z,27.70
2023-02-14T13:55:39.359Z,26.85
2023-02-14T14:00:37.513Z,27.54
2023-02-14T14:05:37.667Z,26.70
2023-02-14T14:10:36.835Z,28.56
2023-02-14T14:15:35.930Z,29.27
2023-02-14T14:20:34.206Z,28.41
2023-02-14T14:25:34.528Z,25.73
2023-02-14T14:30:33.837Z,26.84
2023-02-14T14:35:32.181Z,25.33
2023-02-14T14:40:31.561Z,25.77
2023-02-14T14:45:31.759Z,25.65
2023-02-14T14:50:29.944Z,25.39
2023-02-14T14:55:30.227Z,25.03
2023-02-14T15:00:29.342Z,26.70
2023-02-14T15:05:27.674Z,27.43
2023-02-14T15:10:27.834Z,27.25
2023-02-14T15:15:26.072Z,29.73
2023-02-14T15:20:26.236Z,28.96
2023-02-14T15:25:24.394Z,28.00
2023-02-14T15:30:25.655Z,28.09
2023-02-14T15:35:23.019Z,27.37
2023-02-14T15:40:22.995Z,27.19
2023-02-14T15:45:21.216Z,27.96
2023-02-14T15:50:20.328Z,27.66
2023-02-14T15:55:19.895Z,27.44
2023-02-14T16:00:19.080Z,27.27
2023-02-14T16:05:18.050Z,26.20
2023-02-14T16:10:17.348Z,25.97
2023-02-14T16:15:15.900Z,25.72
2023-02-14T22:57:38.620Z,26.13
2023-02-14T23:02:38.973Z,25.99
2023-02-14T23:07:38.096Z,25.91
2023-02-14T23:12:35.409Z,25.21
2023-02-14T23:17:34.546Z,24.68
2023-02-14T23:22:33.841Z,26.97
2023-02-14T23:27:33.141Z,28.06
2023-02-14T23:32:33.458Z,29.00
2023-02-14T23:37:32.739Z,29.15
2023-02-14T23:42:32.013Z,29.28
2023-02-14T23:47:30.285Z,29.42
2023-02-14T23:52:29.561Z,28.67
2023-02-14T23:57:29.824Z,27.47
